Time;durP1;ratioP1;P1;durP2;ratioP2;P2;SDS_P1;SDS_P2;PMS_P1;PMS_P2;Temp;Humidity;BMP_temperature;BMP_pressure;BME280_temperature;BME280_humidity;BME280_pressure;Samples;Min_cycle;Max_cycle;Signal;HPM_P1;HPM_P2
2023/03/06 00:01:02;;;;;;;35.67;17.10;;;;;;;;;;5126981;27;20027;-45
2023/03/06 00:03:28;;;;;;;42.28;19.23;;;;;;;;;;5128346;27;20106;-44
2023/03/06 00:05:56;;;;;;;43.28;18.90;;;;;;;;;;5125800;27;20035;-44
2023/03/06 00:08:22;;;;;;;41.97;18.63;;;;;;;;;;5126787;27;20027;-45
2023/03/06 00:10:48;;;;;;;35.50;16.80;;;;;;;;;;5128042;27;20027;-44
2023/03/06 00:13:15;;;;;;;35.95;16.83;;;;;;;;;;5127794;27;20425;-45
2023/03/06 00:15:41;;;;;;;31.55;15.55;;;;;;;;;;5126377;27;20042;-45
2023/03/06 00:18:07;;;;;;;38.00;18.02;;;;;;;;;;5128454;27;20027;-45
2023/03/06 00:20:34;;;;;;;35.85;16.98;;;;;;;;;;5127637;27;20038;-45
2023/03/06 00:23:00;;;;;;;33.17;17.08;;;;;;;;;;5127554;27;20444;-45
2023/03/06 00:25:26;;;;;;;31.67;16.98;;;;;;;;;;5128602;27;20054;-45
2023/03/06 00:27:52;;;;;;;39.97;19.45;;;;;;;;;;5127416;27;20430;-45
2023/03/06 00:30:20;;;;;;;36.17;17.80;;;;;;;;;;5127572;27;20087;-44
2023/03/06 00:32:46;;;;;;;36.00;18.15;;;;;;;;;;5127660;27;20147;-45
2023/03/06 00:35:13;;;;;;;35.40;17.17;;;;;;;;;;5126728;27;20038;-45
2023/03/06 00:37:39;;;;;;;36.78;18.27;;;;;;;;;;5127691;27;20397;-45
2023/03/06 00:40:06;;;;;;;31.63;16.63;;;;;;;;;;5127708;27;20065;-43
2023/03/06 00:42:32;;;;;;;35.92;18.40;;;;;;;;;;5127715;27;20039;-46
2023/03/06 00:44:58;;;;;;;34.25;17.00;;;;;;;;;;5125856;27;20026;-44
2023/03/06 00:47:24;;;;;;;37.22;18.05;;;;;;;;;;5128224;27;20481;-46
2023/03/06 00:49:51;;;;;;;30.63;15.68;;;;;;;;;;5127089;27;20035;-44
2023/03/06 00:52:17;;;;;;;34.55;16.63;;;;;;;;;;5127300;27;20039;-44
2023/03/06 00:54:43;;;;;;;31.95;15.90;;;;;;;;;;5127433;27;20038;-43
2023/03/06 00:57:09;;;;;;;35.17;16.48;;;;;;;;;;5127113;27;20389;-44
2023/03/06 00:59:35;;;;;;;33.55;14.93;;;;;;;;;;5127202;27;20031;-44
2023/03/06 01:02:02;;;;;;;31.58;14.15;;;;;;;;;;5125695;27;20072;-44
2023/03/06 01:04:29;;;;;;;29.30;14.23;;;;;;;;;;5126930;27;20037;-43
2023/03/06 06:13:09;;;;;;;30.63;14.32;;;;;;;;;;5096776;28;20038;-43
2023/03/06 06:15:37;;;;;;;27.88;13.57;;;;;;;;;;5089114;28;20071;-44
2023/03/06 06:18:03;;;;;;;27.38;13.80;;;;;;;;;;5095188;28;20573;-43
2023/03/06 06:20:29;;;;;;;36.90;17.38;;;;;;;;;;5109346;28;20041;-44
2023/03/06 06:22:55;;;;;;;34.88;16.80;;;;;;;;;;5109889;28;20099;-44
2023/03/06 06:25:21;;;;;;;33.75;16.10;;;;;;;;;;5109189;28;20910;-43
2023/03/06 06:27:47;;;;;;;37.75;17.33;;;;;;;;;;5109398;28;20023;-43
2023/03/06 06:30:13;;;;;;;36.75;16.98;;;;;;;;;;5109031;28;20078;-43
2023/03/06 06:32:39;;;;;;;31.45;16.23;;;;;;;;;;5108865;28;20024;-43
2023/03/06 06:35:06;;;;;;;36.30;17.10;;;;;;;;;;5108932;28;20103;-43
2023/03/06 06:37:32;;;;;;;32.92;17.50;;;;;;;;;;5108735;28;20711;-43
2023/03/06 06:39:58;;;;;;;33.38;17.02;;;;;;;;;;5108829;28;20037;-43
2023/03/06 06:42:24;;;;;;;33.60;16.02;;;;;;;;;;5109160;28;20028;-43
2023/03/06 06:44:50;;;;;;;31.60;15.68;;;;;;;;;;5108778;28;20093;-43
2023/03/06 06:47:16;;;;;;;32.47;16.67;;;;;;;;;;5109194;28;20047;-43
2023/03/06 06:49:42;;;;;;;31.08;15.65;;;;;;;;;;5109080;28;20566;-43
2023/03/06 06:52:08;;;;;;;30.27;14.90;;;;;;;;;;5109162;28;20604;-43
2023/03/06 06:54:34;;;;;;;29.63;14.90;;;;;;;;;;5108942;28;20479;-44
2023/03/06 06:57:00;;;;;;;32.55;15.07;;;;;;;;;;5109179;28;20450;-43
2023/03/06 06:59:26;;;;;;;33.65;15.80;;;;;;;;;;5108920;28;20023;-44
2023/03/06 07:01:52;;;;;;;32.10;15.50;;;;;;;;;;5108296;28;20046;-43
2023/03/06 07:04:19;;;;;;;35.00;16.45;;;;;;;;;;5109013;28;20087;-44
2023/03/06 07:06:46;;;;;;;33.88;16.98;;;;;;;;;;5107932;28;20030;-43
2023/03/06 07:09:12;;;;;;;36.03;17.60;;;;;;;;;;5107362;28;20038;-43
2023/03/06 07:11:39;;;;;;;35.35;17.83;;;;;;;;;;5107039;28;20097;-43
2023/03/06 07:14:05;;;;;;;34.55;17.85;;;;;;;;;;5126258;27;20074;-45
2023/03/06 07:16:31;;;;;;;37.00;17.92;;;;;;;;;;5131581;27;20502;-43
2023/03/06 07:18:57;;;;;;;38.53;19.30;;;;;;;;;;5132273;27;20066;-43
2023/03/06 07:21:24;;;;;;;37.75;19.33;;;;;;;;;;5131702;27;20051;-43
2023/03/06 07:23:50;;;;;;;36.85;18.30;;;;;;;;;;5131653;27;20076;-43
2023/03/06 07:26:17;;;;;;;32.65;17.67;;;;;;;;;;5132072;27;20027;-43
2023/03/06 07:28:44;;;;;;;33.28;17.73;;;;;;;;;;5132059;27;20477;-43
2023/03/06 07:31:10;;;;;;;31.08;16.15;;;;;;;;;;5113316;27;20160;-44
2023/03/06 07:33:36;;;;;;;32.17;15.88;;;;;;;;;;5131455;27;20019;-45
2023/03/06 07:36:02;;;;;;;30.20;15.82;;;;;;;;;;5131985;27;20477;-43
2023/03/06 07:38:28;;;;;;;31.35;15.82;;;;;;;;;;5131576;27;20440;-43
2023/03/06 07:40:55;;;;;;;26.75;14.05;;;;;;;;;;5131520;27;20027;-43
2023/03/06 07:43:22;;;;;;;26.85;14.50;;;;;;;;;;5131452;27;20083;-43
2023/03/06 07:45:55;;;;;;;26.10;13.25;;;;;;;;;;5130844;27;20484;-43
2023/03/06 07:48:21;;;;;;;24.70;13.07;;;;;;;;;;5130764;27;20342;-43
2023/03/06 07:50:54;;;;;;;23.08;13.10;;;;;;;;;;5131027;27;20031;-45
2023/03/06 07:53:21;;;;;;;21.50;12.23;;;;;;;;;;5131078;27;20462;-42
2023/03/06 07:55:47;;;;;;;21.45;11.52;;;;;;;;;;5131255;27;20472;-43
2023/03/06 07:58:13;;;;;;;21.23;11.30;;;;;;;;;;5132540;27;20031;-44
2023/03/06 08:00:40;;;;;;;20.63;11.52;;;;;;;;;;5131016;27;20088;-43
2023/03/06 08:03:06;;;;;;;19.88;10.57;;;;;;;;;;5131016;27;20019;-43
2023/03/06 08:05:32;;;;;;;17.13;9.43;;;;;;;;;;5129356;27;20041;-43
2023/03/06 08:07:58;;;;;;;16.70;9.35;;;;;;;;;;5130490;27;20034;-42
2023/03/06 08:10:24;;;;;;;14.93;9.02;;;;;;;;;;5131153;27;20027;-44
2023/03/06 08:12:50;;;;;;;14.35;8.57;;;;;;;;;;5120184;27;20105;-44
2023/03/06 08:15:16;;;;;;;16.73;9.55;;;;;;;;;;5110110;28;20590;-43
2023/03/06 08:17:42;;;;;;;18.83;10.15;;;;;;;;;;5095874;28;20817;-43
2023/03/06 08:20:09;;;;;;;14.60;8.40;;;;;;;;;;5090127;28;20028;-43
2023/03/06 08:22:35;;;;;;;13.93;8.63;;;;;;;;;;5089189;28;20099;-43
2023/03/06 08:25:01;;;;;;;15.52;8.20;;;;;;;;;;5088138;28;20576;-43
2023/03/06 08:27:27;;;;;;;13.95;7.65;;;;;;;;;;5093117;28;20028;-44
2023/03/06 08:29:53;;;;;;;13.10;7.10;;;;;;;;;;5109595;28;20118;-44
2023/03/06 08:32:19;;;;;;;11.68;7.47;;;;;;;;;;5109493;28;20490;-43
2023/03/06 08:34:45;;;;;;;12.15;7.95;;;;;;;;;;5109749;28;20027;-43
2023/03/06 08:37:11;;;;;;;13.15;7.80;;;;;;;;;;5109675;28;20028;-44
2023/03/06 08:39:37;;;;;;;13.02;8.10;;;;;;;;;;5109911;28;20059;-43
2023/03/06 08:42:03;;;;;;;12.10;7.00;;;;;;;;;;5109567;28;20035;-44
2023/03/06 08:44:30;;;;;;;11.23;7.03;;;;;;;;;;5109058;28;20043;-44
2023/03/06 08:46:56;;;;;;;11.05;6.85;;;;;;;;;;5109198;28;20015;-44
2023/03/06 08:49:22;;;;;;;11.55;7.22;;;;;;;;;;5109141;28;20360;-43
2023/03/06 08:51:49;;;;;;;10.43;6.43;;;;;;;;;;5107780;28;20098;-43
2023/03/06 08:54:15;;;;;;;12.25;7.53;;;;;;;;;;5108090;28;20027;-44
2023/03/06 08:56:41;;;;;;;10.15;6.10;;;;;;;;;;5107439;28;20084;-44
2023/03/06 08:59:08;;;;;;;9.55;5.75;;;;;;;;;;5108357;28;20035;-44
2023/03/06 09:01:36;;;;;;;11.60;6.43;;;;;;;;;;5107545;28;20121;-44
2023/03/06 09:04:03;;;;;;;12.77;7.22;;;;;;;;;;5107625;28;20095;-43
2023/03/06 09:06:31;;;;;;;12.73;7.03;;;;;;;;;;5107710;28;20051;-44
2023/03/06 09:08:58;;;;;;;12.10;7.10;;;;;;;;;;5107468;28;20407;-43
2023/03/06 09:11:26;;;;;;;12.60;7.05;;;;;;;;;;5107340;28;20028;-44
2023/03/06 09:13:52;;;;;;;13.25;8.40;;;;;;;;;;5107246;28;20035;-44
2023/03/06 09:16:18;;;;;;;11.25;7.05;;;;;;;;;;5107490;28;20032;-43
2023/03/06 09:18:44;;;;;;;11.13;6.60;;;;;;;;;;5107546;28;20031;-44
2023/03/06 09:21:10;;;;;;;11.68;7.03;;;;;;;;;;5105614;28;20039;-43
2023/03/06 09:23:38;;;;;;;11.55;6.63;;;;;;;;;;5105566;28;20024;-44
2023/03/06 09:26:05;;;;;;;9.95;6.07;;;;;;;;;;5107374;28;20024;-43
2023/03/06 09:28:34;;;;;;;9.82;6.22;;;;;;;;;;5108234;28;20028;-44
2023/03/06 09:31:01;;;;;;;9.68;6.40;;;;;;;;;;5112062;27;20050;-44
2023/03/06 09:33:30;;;;;;;9.68;5.88;;;;;;;;;;5103858;27;20043;-44
2023/03/06 09:35:56;;;;;;;9.75;5.75;;;;;;;;;;5108193;28;20028;-44
2023/03/06 09:38:24;;;;;;;9.85;5.60;;;;;;;;;;5107896;28;20039;-44
2023/03/06 09:41:00;;;;;;;7.97;4.95;;;;;;;;;;5107886;28;20398;-43
2023/03/06 09:43:29;;;;;;;8.18;5.03;;;;;;;;;;5107847;28;20100;-44
2023/03/06 09:45:55;;;;;;;8.23;5.22;;;;;;;;;;5106649;28;20038;-44
2023/03/06 09:48:24;;;;;;;10.27;5.50;;;;;;;;;;5107997;28;20019;-46
2023/03/06 09:50:51;;;;;;;7.70;4.80;;;;;;;;;;5107987;28;20020;-43
2023/03/06 09:53:37;;;;;;;8.57;4.78;;;;;;;;;;5107612;28;20028;-43
2023/03/06 09:56:08;;;;;;;10.10;5.35;;;;;;;;;;5108057;28;20028;-44
2023/03/06 09:58:41;;;;;;;7.05;4.70;;;;;;;;;;5107737;28;20131;-44
2023/03/06 10:01:17;;;;;;;7.82;4.70;;;;;;;;;;5107038;28;20027;-44
2023/03/06 10:03:56;;;;;;;7.05;4.40;;;;;;;;;;5090764;28;20712;-43
2023/03/06 10:06:30;;;;;;;6.63;3.75;;;;;;;;;;5092418;28;20096;-44
2023/03/06 10:08:56;;;;;;;6.10;4.10;;;;;;;;;;5105779;28;20024;-43
2023/03/06 10:11:25;;;;;;;6.38;4.18;;;;;;;;;;5099577;28;20024;-44
2023/03/06 10:13:58;;;;;;;7.50;4.45;;;;;;;;;;5091864;28;20035;-43
2023/03/06 10:16:29;;;;;;;7.38;4.80;;;;;;;;;;5099255;28;20027;-44
2023/03/06 10:18:58;;;;;;;5.28;3.88;;;;;;;;;;5106426;28;20093;-43
2023/03/06 10:21:43;;;;;;;7.28;4.13;;;;;;;;;;5107556;28;20398;-43
2023/03/06 10:24:10;;;;;;;6.47;4.47;;;;;;;;;;5107240;28;20034;-44
2023/03/06 10:26:42;;;;;;;6.45;4.00;;;;;;;;;;5107601;28;20089;-45
2023/03/06 10:29:19;;;;;;;6.38;4.07;;;;;;;;;;5106983;28;20114;-44
2023/03/06 10:31:51;;;;;;;7.72;4.45;;;;;;;;;;5107270;28;20149;-43
2023/03/06 10:34:28;;;;;;;13.90;7.63;;;;;;;;;;5099644;28;20439;-44
2023/03/06 10:36:54;;;;;;;12.43;7.07;;;;;;;;;;5107869;28;20099;-43
2023/03/06 10:39:21;;;;;;;12.80;6.97;;;;;;;;;;5107407;28;20024;-45
2023/03/06 10:41:48;;;;;;;9.80;6.05;;;;;;;;;;5108201;28;20034;-44
2023/03/06 10:44:14;;;;;;;9.35;5.55;;;;;;;;;;5107962;28;20380;-45
2023/03/06 10:46:42;;;;;;;9.35;5.57;;;;;;;;;;5106308;28;20020;-44
2023/03/06 10:49:28;;;;;;;7.63;4.72;;;;;;;;;;5106319;28;20452;-44
2023/03/06 10:52:05;;;;;;;7.05;4.78;;;;;;;;;;5108204;28;20020;-45
2023/03/06 10:54:38;;;;;;;8.82;4.70;;;;;;;;;;5104899;28;20038;-46
2023/03/06 10:57:31;;;;;;;7.45;4.68;;;;;;;;;;5105908;28;20038;-46
2023/03/06 10:59:57;;;;;;;6.63;4.10;;;;;;;;;;5102212;28;20089;-46
2023/03/06 11:02:26;;;;;;;7.10;4.65;;;;;;;;;;5107449;28;20028;-44
2023/03/06 11:04:53;;;;;;;5.70;4.25;;;;;;;;;;5107518;28;20109;-44
2023/03/06 11:07:20;;;;;;;9.30;5.22;;;;;;;;;;5107266;28;20519;-46
2023/03/06 11:09:58;;;;;;;7.25;4.88;;;;;;;;;;5107131;28;20047;-46
2023/03/06 11:12:33;;;;;;;9.30;5.35;;;;;;;;;;5111597;28;20027;-44
2023/03/06 11:15:08;;;;;;;9.38;5.40;;;;;;;;;;5127373;28;20027;-44
2023/03/06 11:17:36;;;;;;;10.20;6.47;;;;;;;;;;5127596;28;20886;-44
2023/03/06 11:20:14;;;;;;;9.63;5.88;;;;;;;;;;5127476;28;20439;-48
2023/03/06 11:22:40;;;;;;;14.30;7.85;;;;;;;;;;5125846;27;20069;-45
2023/03/06 11:25:11;;;;;;;13.15;7.25;;;;;;;;;;5127357;28;20027;-44
2023/03/06 11:27:41;;;;;;;12.18;6.63;;;;;;;;;;5127050;28;20028;-45
2023/03/06 11:30:15;;;;;;;10.23;5.45;;;;;;;;;;5106614;28;20023;-44
2023/03/06 11:32:45;;;;;;;8.45;5.00;;;;;;;;;;5127143;28;20054;-45
2023/03/06 11:35:16;;;;;;;11.50;5.32;;;;;;;;;;5122739;28;20030;-45
2023/03/06 11:37:56;;;;;;;8.20;5.03;;;;;;;;;;5127258;28;20042;-45
2023/03/06 11:40:22;;;;;;;8.80;5.68;;;;;;;;;;5128009;28;20030;-44
2023/03/06 11:43:07;;;;;;;7.25;4.50;;;;;;;;;;5126915;28;20445;-45
2023/03/06 11:45:36;;;;;;;11.15;6.20;;;;;;;;;;5127160;28;20038;-47
2023/03/06 11:48:14;;;;;;;9.18;5.70;;;;;;;;;;5127354;28;20426;-46
2023/03/06 11:50:43;;;;;;;11.18;6.65;;;;;;;;;;5127053;28;20030;-45
2023/03/06 11:53:15;;;;;;;10.80;6.20;;;;;;;;;;5127523;28;20019;-45
2023/03/06 11:55:47;;;;;;;8.85;5.30;;;;;;;;;;5127032;28;20031;-45
2023/03/06 11:58:19;;;;;;;11.77;6.68;;;;;;;;;;5126841;28;20023;-45
2023/03/06 12:00:57;;;;;;;9.32;5.40;;;;;;;;;;5127475;27;20035;-47
2023/03/06 12:03:26;;;;;;;12.07;6.03;;;;;;;;;;5131196;27;20027;-44
2023/03/06 12:06:08;;;;;;;9.65;5.63;;;;;;;;;;5131537;27;20031;-49
2023/03/06 12:08:34;;;;;;;13.23;7.85;;;;;;;;;;5129432;27;20019;-45
2023/03/06 12:11:08;;;;;;;11.82;7.25;;;;;;;;;;5130648;27;20080;-45
2023/03/06 12:13:48;;;;;;;12.25;7.07;;;;;;;;;;5129240;27;20031;-45
2023/03/06 12:16:17;;;;;;;12.70;7.90;;;;;;;;;;5130585;27;20027;-45
2023/03/06 12:18:52;;;;;;;13.25;7.68;;;;;;;;;;5130495;27;20023;-45
2023/03/06 12:21:36;;;;;;;10.18;6.40;;;;;;;;;;5130145;27;20031;-45
2023/03/06 12:24:22;;;;;;;10.48;6.47;;;;;;;;;;5112181;27;20030;-46
2023/03/06 12:26:54;;;;;;;10.95;6.22;;;;;;;;;;5098138;27;20047;-44
2023/03/06 12:29:27;;;;;;;9.88;5.85;;;;;;;;;;5130235;27;20502;-45
2023/03/06 12:31:53;;;;;;;8.40;4.90;;;;;;;;;;5130018;27;20011;-47
2023/03/06 12:34:28;;;;;;;6.72;4.47;;;;;;;;;;5129812;27;20447;-46
2023/03/06 12:36:57;;;;;;;11.65;6.50;;;;;;;;;;5125818;27;20493;-45
2023/03/06 12:39:38;;;;;;;16.17;8.65;;;;;;;;;;5129809;27;20074;-44
2023/03/06 12:42:16;;;;;;;18.10;9.70;;;;;;;;;;5147009;27;20520;-45
2023/03/06 12:44:45;;;;;;;18.67;10.63;;;;;;;;;;5150556;27;20031;-45
2023/03/06 12:47:16;;;;;;;17.52;9.60;;;;;;;;;;5131815;27;20023;-47
2023/03/06 12:49:43;;;;;;;15.65;8.38;;;;;;;;;;5148893;27;20022;-45
2023/03/06 12:52:15;;;;;;;13.02;7.47;;;;;;;;;;5129399;27;20495;-46
2023/03/06 12:54:41;;;;;;;12.45;7.15;;;;;;;;;;5129846;27;20030;-46
2023/03/06 12:57:10;;;;;;;11.00;6.53;;;;;;;;;;5129573;27;20111;-46
2023/03/06 12:59:41;;;;;;;11.80;6.35;;;;;;;;;;5130030;27;20031;-46
2023/03/06 13:02:13;;;;;;;11.43;7.05;;;;;;;;;;5128864;27;20062;-44
2023/03/06 13:04:45;;;;;;;11.50;7.10;;;;;;;;;;5128971;27;20506;-48
2023/03/06 13:07:30;;;;;;;10.60;6.32;;;;;;;;;;5128452;27;20026;-46
2023/03/06 13:10:01;;;;;;;13.43;7.78;;;;;;;;;;5129281;27;20058;-47
2023/03/06 13:12:30;;;;;;;10.77;6.22;;;;;;;;;;5128192;27;20088;-49
2023/03/06 13:15:16;;;;;;;10.30;6.78;;;;;;;;;;5148459;27;20030;-45
2023/03/06 13:17:42;;;;;;;8.45;5.45;;;;;;;;;;5149487;27;20449;-44
2023/03/06 13:20:15;;;;;;;11.57;6.32;;;;;;;;;;5149935;27;20409;-46
2023/03/06 13:22:44;;;;;;;10.82;6.10;;;;;;;;;;5142758;27;20031;-48
2023/03/06 13:25:16;;;;;;;8.93;5.70;;;;;;;;;;5127262;27;20046;-47
2023/03/06 13:27:45;;;;;;;8.30;5.07;;;;;;;;;;5111470;27;20019;-46
2023/03/06 13:30:21;;;;;;;9.13;4.95;;;;;;;;;;5127906;27;20047;-44
2023/03/06 13:32:48;;;;;;;7.78;4.82;;;;;;;;;;5127890;27;20250;-47
2023/03/06 13:35:46;;;;;;;7.00;4.43;;;;;;;;;;5126542;27;20031;-46
2023/03/06 13:38:36;;;;;;;10.85;6.93;;;;;;;;;;5122044;27;20097;-46
2023/03/06 13:41:20;;;;;;;13.85;8.32;;;;;;;;;;5119616;27;20039;-45
2023/03/06 13:43:48;;;;;;;10.73;6.78;;;;;;;;;;5127033;27;20502;-46
2023/03/06 13:46:26;;;;;;;12.35;6.70;;;;;;;;;;5127487;27;20109;-45
2023/03/06 13:49:04;;;;;;;9.73;6.28;;;;;;;;;;5123194;27;20027;-44
2023/03/06 13:51:34;;;;;;;15.13;9.20;;;;;;;;;;5128021;27;20063;-44
2023/03/06 13:53:59;;;;;;;12.65;7.43;;;;;;;;;;5127685;27;20019;-45
2023/03/06 13:56:37;;;;;;;10.45;6.35;;;;;;;;;;5127973;27;20413;-47
2023/03/06 13:59:22;;;;;;;10.05;5.90;;;;;;;;;;5128210;27;20121;-46
2023/03/06 14:02:09;;;;;;;9.75;5.80;;;;;;;;;;5127111;27;20052;-45
2023/03/06 14:04:53;;;;;;;10.68;6.03;;;;;;;;;;5117925;27;20517;-45
2023/03/06 14:07:27;;;;;;;8.55;5.35;;;;;;;;;;5126436;27;20027;-45
2023/03/06 14:10:12;;;;;;;7.88;4.97;;;;;;;;;;5109031;27;20084;-45
2023/03/06 14:12:43;;;;;;;8.45;5.25;;;;;;;;;;5121136;27;20039;-45
2023/03/06 14:15:15;;;;;;;8.25;5.28;;;;;;;;;;5127865;27;20027;-46
2023/03/06 14:17:47;;;;;;;8.35;4.50;;;;;;;;;;5128048;27;20026;-44
2023/03/06 14:20:14;;;;;;;8.60;5.00;;;;;;;;;;5126885;27;20046;-46
2023/03/06 14:22:40;;;;;;;9.32;5.22;;;;;;;;;;5127864;27;20039;-46
2023/03/06 14:25:12;;;;;;;8.15;5.00;;;;;;;;;;5127264;27;20030;-45
2023/03/06 14:27:58;;;;;;;7.22;4.50;;;;;;;;;;5112557;27;20549;-47
2023/03/06 14:30:25;;;;;;;8.57;5.13;;;;;;;;;;5127631;27;20032;-47
2023/03/06 14:32:52;;;;;;;9.15;5.22;;;;;;;;;;5126884;27;20027;-45
2023/03/06 14:35:26;;;;;;;7.15;4.60;;;;;;;;;;5128048;27;20034;-44
2023/03/06 14:37:54;;;;;;;8.90;5.32;;;;;;;;;;5126879;27;20031;-45
2023/03/06 14:40:43;;;;;;;8.45;5.75;;;;;;;;;;5126804;27;20031;-45
2023/03/06 14:43:11;;;;;;;10.02;6.35;;;;;;;;;;5114941;27;20039;-46
2023/03/06 14:45:47;;;;;;;9.65;5.75;;;;;;;;;;5128122;27;20509;-46
2023/03/06 14:48:14;;;;;;;8.80;5.60;;;;;;;;;;5127447;27;20489;-46
2023/03/06 15:05:59;;;;;;;8.18;5.00;;;;;;;;;;5127355;28;20467;-45
2023/03/06 15:08:28;;;;;;;8.35;4.80;;;;;;;;;;5126785;28;20043;-46
2023/03/06 15:10:56;;;;;;;10.80;5.65;;;;;;;;;;5128251;27;20093;-46
2023/03/06 15:13:25;;;;;;;9.65;5.57;;;;;;;;;;5127745;28;20050;-45
2023/03/06 15:15:57;;;;;;;9.35;5.22;;;;;;;;;;5128432;28;20038;-47
2023/03/06 15:18:34;;;;;;;8.13;4.95;;;;;;;;;;5127062;27;20175;-46
2023/03/06 15:21:07;;;;;;;7.00;4.60;;;;;;;;;;5130445;27;20409;-45
2023/03/06 15:23:35;;;;;;;5.85;4.13;;;;;;;;;;5127828;28;20026;-47
2023/03/06 15:26:22;;;;;;;8.23;4.47;;;;;;;;;;5128044;28;20091;-47
2023/03/06 15:28:58;;;;;;;7.85;4.43;;;;;;;;;;5110941;28;20067;-45
2023/03/06 15:31:29;;;;;;;9.20;5.50;;;;;;;;;;5128576;28;20019;-45
2023/03/06 15:34:10;;;;;;;7.00;4.32;;;;;;;;;;5127746;27;20051;-46
2023/03/06 15:36:47;;;;;;;6.43;4.10;;;;;;;;;;5130559;27;20058;-45
2023/03/06 15:39:31;;;;;;;7.63;4.80;;;;;;;;;;5121624;27;20106;-45
2023/03/06 15:42:00;;;;;;;7.15;4.40;;;;;;;;;;5125609;27;20039;-45
2023/03/06 15:44:27;;;;;;;8.50;5.15;;;;;;;;;;5131535;27;20110;-45
2023/03/06 15:46:55;;;;;;;6.78;4.68;;;;;;;;;;5132041;27;20038;-45
2023/03/06 15:49:22;;;;;;;7.32;4.57;;;;;;;;;;5130546;27;20838;-49
2023/03/06 15:51:47;;;;;;;6.07;4.50;;;;;;;;;;5128850;27;20019;-49
2023/03/06 15:54:14;;;;;;;9.20;5.53;;;;;;;;;;5129888;27;20064;-48
2023/03/06 15:56:42;;;;;;;9.35;4.97;;;;;;;;;;5131462;27;20034;-46
2023/03/06 15:59:13;;;;;;;7.40;4.60;;;;;;;;;;5130491;27;20215;-47
2023/03/06 16:01:41;;;;;;;8.32;5.20;;;;;;;;;;5127914;27;20042;-46
2023/03/06 16:04:07;;;;;;;7.38;4.75;;;;;;;;;;5130939;27;20088;-47
2023/03/06 16:06:34;;;;;;;7.30;4.68;;;;;;;;;;5130607;27;20474;-46
2023/03/06 16:09:00;;;;;;;9.75;5.50;;;;;;;;;;5129229;27;20402;-48
2023/03/06 16:11:28;;;;;;;8.88;5.70;;;;;;;;;;5130717;27;20023;-46
2023/03/06 16:13:55;;;;;;;10.13;5.38;;;;;;;;;;5130370;27;20031;-47
2023/03/06 16:16:42;;;;;;;8.18;4.38;;;;;;;;;;5130900;27;20043;-46
2023/03/06 16:19:13;;;;;;;7.55;5.32;;;;;;;;;;5130409;27;20113;-48
2023/03/06 16:21:39;;;;;;;7.97;5.00;;;;;;;;;;5130572;27;20035;-47
2023/03/06 16:24:05;;;;;;;8.63;5.47;;;;;;;;;;5128383;27;20417;-46
2023/03/06 16:26:32;;;;;;;7.65;5.28;;;;;;;;;;5130536;27;20031;-49
2023/03/06 16:28:58;;;;;;;9.05;5.30;;;;;;;;;;5130601;27;20043;-49
2023/03/06 16:31:24;;;;;;;9.73;5.78;;;;;;;;;;5129492;27;20070;-47
2023/03/06 16:33:50;;;;;;;9.15;5.25;;;;;;;;;;5110018;27;20051;-48
2023/03/06 16:36:19;;;;;;;9.15;5.70;;;;;;;;;;5130404;27;20595;-49
2023/03/06 16:38:45;;;;;;;9.15;5.65;;;;;;;;;;5118946;27;20038;-49
2023/03/06 16:41:11;;;;;;;8.98;5.60;;;;;;;;;;5126081;27;20031;-46
2023/03/06 16:43:37;;;;;;;11.00;6.35;;;;;;;;;;5130728;27;20428;-46
2023/03/06 16:46:04;;;;;;;9.88;5.75;;;;;;;;;;5127961;27;20041;-46
2023/03/06 16:48:30;;;;;;;11.00;6.20;;;;;;;;;;5128776;27;20035;-48
2023/03/06 16:50:56;;;;;;;9.95;5.47;;;;;;;;;;5135856;27;20019;-46
2023/03/06 16:53:22;;;;;;;9.95;6.07;;;;;;;;;;5138787;27;20019;-49
2023/03/06 16:55:48;;;;;;;8.30;5.22;;;;;;;;;;5134247;27;20509;-46
2023/03/06 16:58:14;;;;;;;9.05;5.50;;;;;;;;;;5111596;27;20402;-48
2023/03/06 17:00:41;;;;;;;9.10;5.90;;;;;;;;;;5129333;27;20046;-48
2023/03/06 17:03:07;;;;;;;11.20;5.55;;;;;;;;;;5129363;27;20502;-46
2023/03/06 17:05:35;;;;;;;8.50;5.90;;;;;;;;;;5129500;27;20034;-48
2023/03/06 17:08:01;;;;;;;8.73;5.65;;;;;;;;;;5128356;27;20030;-45
2023/03/06 17:10:27;;;;;;;10.75;6.32;;;;;;;;;;5127760;27;20027;-47
2023/03/06 17:12:55;;;;;;;8.88;5.35;;;;;;;;;;5127223;27;20025;-47
2023/03/06 17:15:21;;;;;;;10.18;5.70;;;;;;;;;;5127963;27;20031;-47
2023/03/06 17:17:47;;;;;;;8.68;5.50;;;;;;;;;;5124903;27;20031;-48
2023/03/06 17:20:13;;;;;;;10.63;5.82;;;;;;;;;;5128464;27;20526;-49
2023/03/06 17:22:40;;;;;;;7.97;4.97;;;;;;;;;;5127734;27;20027;-47
2023/03/06 17:25:07;;;;;;;8.23;5.32;;;;;;;;;;5129083;27;20691;-46
2023/03/06 17:27:34;;;;;;;9.18;5.20;;;;;;;;;;5126801;27;20117;-48
2023/03/06 17:30:00;;;;;;;10.20;5.28;;;;;;;;;;5128441;27;20617;-49
2023/03/06 17:32:26;;;;;;;8.65;5.20;;;;;;;;;;5128315;27;20034;-47
2023/03/06 17:34:53;;;;;;;9.55;5.57;;;;;;;;;;5129134;27;20084;-47
2023/03/06 17:37:19;;;;;;;10.43;6.00;;;;;;;;;;5128026;27;20029;-47
2023/03/06 17:39:45;;;;;;;9.02;5.20;;;;;;;;;;5140575;27;20043;-47
2023/03/06 17:42:13;;;;;;;7.50;4.70;;;;;;;;;;5127734;27;20023;-50
2023/03/06 17:44:38;;;;;;;10.63;6.03;;;;;;;;;;5127934;27;20039;-50
2023/03/06 17:47:05;;;;;;;10.07;5.57;;;;;;;;;;5127455;27;20024;-50
2023/03/06 17:49:32;;;;;;;9.93;5.63;;;;;;;;;;5126173;27;20451;-51
2023/03/06 17:52:04;;;;;;;8.82;5.70;;;;;;;;;;5126366;27;20026;-50
2023/03/06 17:54:32;;;;;;;8.63;4.80;;;;;;;;;;5127090;27;20083;-52
2023/03/06 17:56:59;;;;;;;8.95;5.25;;;;;;;;;;5127015;27;20023;-51
2023/03/06 17:59:27;;;;;;;11.25;5.63;;;;;;;;;;5127175;27;20432;-51
2023/03/06 18:01:57;;;;;;;9.52;5.22;;;;;;;;;;5127144;27;20020;-50
2023/03/06 18:04:23;;;;;;;8.75;5.00;;;;;;;;;;5126758;27;20541;-53
2023/03/06 18:06:49;;;;;;;8.13;4.90;;;;;;;;;;5125099;27;20051;-52
2023/03/06 18:09:16;;;;;;;8.45;4.65;;;;;;;;;;5126309;27;20055;-53
2023/03/06 18:11:43;;;;;;;7.55;4.53;;;;;;;;;;5127293;27;20026;-52
2023/03/06 18:14:09;;;;;;;7.07;4.40;;;;;;;;;;5127409;27;20367;-53
2023/03/06 18:16:35;;;;;;;10.32;5.22;;;;;;;;;;5108818;27;20068;-53
2023/03/06 18:19:01;;;;;;;7.45;4.53;;;;;;;;;;5125616;27;20490;-51
2023/03/06 18:21:27;;;;;;;6.93;4.55;;;;;;;;;;5125867;27;20045;-52
2023/03/06 18:23:53;;;;;;;7.55;4.63;;;;;;;;;;5125151;27;20531;-47
2023/03/06 18:26:24;;;;;;;8.10;4.43;;;;;;;;;;5126155;27;20031;-48
2023/03/06 18:28:57;;;;;;;8.77;5.68;;;;;;;;;;5127139;27;20027;-49
2023/03/06 18:31:24;;;;;;;8.50;5.07;;;;;;;;;;5126623;27;20459;-49
2023/03/06 18:33:55;;;;;;;8.77;5.25;;;;;;;;;;5108255;27;20022;-49
2023/03/06 18:36:22;;;;;;;8.35;5.20;;;;;;;;;;5126393;27;20076;-47
2023/03/06 18:38:48;;;;;;;8.82;5.38;;;;;;;;;;5126506;27;20118;-45
2023/03/06 18:41:15;;;;;;;11.60;5.70;;;;;;;;;;5113784;27;20073;-45
2023/03/06 18:43:41;;;;;;;9.25;5.43;;;;;;;;;;5106539;28;20027;-45
2023/03/06 18:46:07;;;;;;;10.95;5.28;;;;;;;;;;5106250;28;20027;-50
2023/03/06 18:48:33;;;;;;;9.05;5.10;;;;;;;;;;5107256;28;20023;-47
2023/03/06 18:51:03;;;;;;;8.90;5.20;;;;;;;;;;5125865;28;20490;-49
2023/03/06 18:53:29;;;;;;;8.50;5.22;;;;;;;;;;5126214;28;20054;-49
2023/03/06 18:55:55;;;;;;;8.20;5.07;;;;;;;;;;5126602;28;20050;-49
2023/03/06 18:58:21;;;;;;;8.50;5.18;;;;;;;;;;5126300;28;20038;-49
2023/03/06 19:00:47;;;;;;;7.78;5.07;;;;;;;;;;5126457;28;20513;-45
2023/03/06 19:03:13;;;;;;;9.93;5.25;;;;;;;;;;5126102;28;20049;-47
2023/03/06 19:05:43;;;;;;;7.43;4.55;;;;;;;;;;5125742;28;20182;-47
2023/03/06 19:08:09;;;;;;;8.05;4.70;;;;;;;;;;5125255;28;20498;-46
2023/03/06 19:10:39;;;;;;;8.85;5.43;;;;;;;;;;5127174;27;20490;-48
2023/03/06 19:13:07;;;;;;;9.30;5.00;;;;;;;;;;5130268;27;20027;-46
2023/03/06 19:15:34;;;;;;;7.38;5.05;;;;;;;;;;5130643;27;20035;-46
2023/03/06 19:18:00;;;;;;;8.55;5.43;;;;;;;;;;5129091;27;20035;-46
2023/03/06 19:20:27;;;;;;;8.75;5.05;;;;;;;;;;5128138;27;20027;-45
2023/03/06 19:22:53;;;;;;;8.27;5.07;;;;;;;;;;5128985;27;20209;-47
2023/03/06 19:25:19;;;;;;;7.53;5.00;;;;;;;;;;5127651;27;20372;-49
2023/03/06 19:27:45;;;;;;;7.75;4.78;;;;;;;;;;5129098;27;20379;-49
2023/03/06 19:30:12;;;;;;;6.53;4.53;;;;;;;;;;5129695;27;20031;-46
2023/03/06 19:32:39;;;;;;;7.78;4.53;;;;;;;;;;5128410;27;20023;-45
2023/03/06 19:35:05;;;;;;;11.45;5.40;;;;;;;;;;5128683;27;20031;-46
2023/03/06 19:37:32;;;;;;;8.60;4.75;;;;;;;;;;5128164;27;20493;-47
2023/03/06 19:40:00;;;;;;;7.63;4.57;;;;;;;;;;5128830;27;20117;-46
2023/03/06 19:42:27;;;;;;;8.40;4.90;;;;;;;;;;5129085;27;20269;-47
2023/03/06 19:44:53;;;;;;;8.00;4.63;;;;;;;;;;5128913;27;20034;-45
2023/03/06 19:47:19;;;;;;;6.80;4.25;;;;;;;;;;5127639;27;20016;-45
2023/03/06 19:49:45;;;;;;;7.85;4.40;;;;;;;;;;5130005;27;20553;-45
2023/03/06 19:52:11;;;;;;;7.70;4.55;;;;;;;;;;5129657;27;20124;-46
2023/03/06 19:54:37;;;;;;;9.25;5.22;;;;;;;;;;5129686;27;20034;-45
2023/03/06 19:57:04;;;;;;;9.35;5.05;;;;;;;;;;5128437;27;20023;-46
2023/03/06 19:59:31;;;;;;;12.48;5.82;;;;;;;;;;5129359;27;20529;-45
2023/03/06 20:01:57;;;;;;;10.10;5.40;;;;;;;;;;5129198;27;20047;-44
2023/03/06 20:04:23;;;;;;;10.30;6.40;;;;;;;;;;5129348;27;20027;-45
2023/03/06 20:06:50;;;;;;;9.38;5.68;;;;;;;;;;5128993;27;20525;-45